createdAt,value
2022-12-04T00:00:48.460Z,9.661536
2022-12-04T00:01:48.439Z,9.661555
2022-12-04T00:02:48.468Z,9.661561
2022-12-04T00:03:48.398Z,9.661571
2022-12-04T00:04:48.445Z,9.661543
2022-12-04T00:05:48.395Z,9.661557
2022-12-04T00:06:48.416Z,9.661627
2022-12-04T00:07:48.435Z,9.661492
2022-12-04T00:08:48.393Z,9.661543
2022-12-04T00:09:48.383Z,9.661539
2022-12-04T00:10:48.335Z,9.661524
2022-12-04T00:11:48.395Z,9.661525
2022-12-04T00:12:48.357Z,9.661587
2022-12-04T00:13:48.402Z,9.661609
2022-12-04T00:15:23.277Z,9.661575
2022-12-04T00:15:50.381Z,9.661566
2022-12-04T00:16:48.401Z,9.661542
2022-12-04T00:17:48.432Z,9.661595
2022-12-04T00:18:48.344Z,9.661699
2022-12-04T00:19:49.359Z,9.661551
2022-12-04T00:20:48.317Z,9.661558
2022-12-04T00:21:55.704Z,9.661692
2022-12-04T00:22:48.317Z,9.661585
2022-12-04T00:23:48.280Z,9.661471
2022-12-04T00:24:48.275Z,9.661506
2022-12-04T00:25:48.235Z,9.661482
2022-12-04T00:26:48.280Z,9.661626
2022-12-04T00:27:48.249Z,9.661665
2022-12-04T00:28:48.369Z,9.661763
2022-12-04T00:29:48.265Z,9.661610
2022-12-04T00:30:48.224Z,9.661577
2022-12-04T00:31:48.291Z,9.661556
2022-12-04T00:32:48.251Z,9.661539
2022-12-04T00:33:48.271Z,9.661628
2022-12-04T00:34:48.223Z,9.661555
2022-12-04T00:35:48.182Z,9.661586
2022-12-04T00:36:48.231Z,9.661470
2022-12-04T00:37:48.189Z,9.661382
2022-12-04T00:38:48.175Z,9.661658
2022-12-04T00:39:48.217Z,9.661522
2022-12-04T00:40:48.198Z,9.661319
2022-12-04T00:41:48.211Z,9.661366
2022-12-04T00:42:48.203Z,9.661483
2022-12-04T00:43:49.188Z,9.661513
2022-12-04T00:44:48.270Z,9.661412
2022-12-04T00:45:48.253Z,9.661408
2022-12-04T00:46:48.172Z,9.661540
2022-12-04T00:47:48.160Z,9.661535
2022-12-04T00:48:48.096Z,9.661514
2022-12-04T00:49:48.107Z,9.661625
2022-12-04T00:50:48.158Z,9.661478
2022-12-04T00:51:48.107Z,9.661534
2022-12-04T00:52:48.093Z,9.661493
2022-12-04T00:53:48.092Z,9.661599
2022-12-04T00:54:48.132Z,9.661521
2022-12-04T00:55:48.134Z,9.661577
2022-12-04T00:56:48.093Z,9.661519
2022-12-04T00:57:48.096Z,9.661552
2022-12-04T00:58:48.076Z,9.661466
2022-12-04T00:59:48.063Z,9.661506
2022-12-04T01:00:48.105Z,9.661499
2022-12-04T01:01:48.084Z,9.661412
2022-12-04T01:02:48.107Z,9.661412
2022-12-04T01:03:48.058Z,9.661447
2022-12-04T01:04:48.038Z,9.661407
2022-12-04T01:05:48.032Z,9.661427
2022-12-04T01:06:48.143Z,9.661469
2022-12-04T01:07:48.045Z,9.661446
2022-12-04T01:08:48.015Z,9.661409
2022-12-04T01:09:47.990Z,9.661448
2022-12-04T01:10:48.007Z,9.661466
2022-12-04T01:11:48.004Z,9.661475
2022-12-04T01:12:47.983Z,9.661557
2022-12-04T01:13:47.973Z,9.661402
2022-12-04T01:14:47.978Z,9.661538
2022-12-04T01:15:47.999Z,9.661488
2022-12-04T01:16:48.058Z,9.661433
2022-12-04T01:17:48.011Z,9.661427
2022-12-04T01:18:47.979Z,9.661365
2022-12-04T01:19:47.967Z,9.661435
2022-12-04T01:20:47.930Z,9.661523
2022-12-04T01:21:47.925Z,9.661481
2022-12-04T01:22:47.896Z,9.661359
2022-12-04T01:23:48.004Z,9.661381
2022-12-04T01:24:47.928Z,9.661302
2022-12-04T01:25:47.876Z,9.661156
2022-12-04T01:26:47.932Z,9.661438
2022-12-04T01:27:47.934Z,9.661370
2022-12-04T01:28:47.948Z,9.661016
2022-12-04T01:29:47.896Z,9.661190
2022-12-04T01:30:47.862Z,9.661182
2022-12-04T01:31:47.926Z,9.661120
2022-12-04T01:32:47.872Z,9.661075
2022-12-04T01:33:47.864Z,9.660976
2022-12-04T01:34:47.927Z,9.660986
2022-12-04T01:35:47.857Z,9.661291
2022-12-04T01:36:47.849Z,9.661375
2022-12-04T01:37:47.868Z,9.661371
2022-12-04T01:38:47.836Z,9.661313
2022-12-04T01:39:47.970Z,9.661640
2022-12-04T01:40:47.852Z,9.661674
2022-12-04T01:41:47.845Z,9.661705
2022-12-04T01:42:47.795Z,9.661511
2022-12-04T01:43:47.830Z,9.661561
2022-12-04T01:44:47.769Z,9.661698
2022-12-04T01:45:47.984Z,9.661769
2022-12-04T01:46:47.775Z,9.662068
2022-12-04T01:47:47.789Z,9.662221
2022-12-04T01:48:47.799Z,9.661900
2022-12-04T01:49:47.754Z,9.661574
2022-12-04T01:50:47.886Z,9.661499
2022-12-04T01:51:47.758Z,9.661474
2022-12-04T01:52:47.749Z,9.661636
2022-12-04T01:53:47.772Z,9.661576
2022-12-04T01:54:47.769Z,9.661639
2022-12-04T01:55:47.703Z,9.661457
2022-12-04T01:56:47.736Z,9.661460
2022-12-04T01:57:47.699Z,9.661635
2022-12-04T01:58:48.721Z,9.661715
2022-12-04T01:59:47.723Z,9.661678
2022-12-04T02:00:51.633Z,9.661568
2022-12-04T02:01:48.812Z,9.661422
2022-12-04T02:02:47.778Z,9.661668
2022-12-04T02:03:47.727Z,9.661601
2022-12-04T02:04:47.710Z,9.661520
2022-12-04T02:05:47.670Z,9.661570
2022-12-04T02:06:47.694Z,9.661663
2022-12-04T02:07:47.690Z,9.661715
2022-12-04T02:08:47.690Z,9.661712
2022-12-04T02:09:47.663Z,9.661751
2022-12-04T02:10:47.663Z,9.661620
2022-12-04T02:11:47.675Z,9.661769
2022-12-04T02:12:47.637Z,9.661778
2022-12-04T02:13:47.680Z,9.661762
2022-12-04T02:14:47.682Z,9.661648
2022-12-04T02:15:47.639Z,9.661710
2022-12-04T02:16:47.699Z,9.661683
2022-12-04T02:17:47.595Z,9.661695
2022-12-04T02:18:47.637Z,9.661777
2022-12-04T02:19:47.601Z,9.661735
2022-12-04T02:20:47.603Z,9.661740
2022-12-04T02:21:48.761Z,9.661779
2022-12-04T02:22:47.614Z,9.661753
2022-12-04T02:23:47.579Z,9.661825
2022-12-04T02:24:50.205Z,9.661872
2022-12-04T02:25:47.588Z,9.661890
2022-12-04T02:26:47.603Z,9.661862
2022-12-04T02:27:47.573Z,9.661707
2022-12-04T02:28:47.562Z,9.661716
2022-12-04T02:29:47.546Z,9.661769
2022-12-04T02:30:47.652Z,9.661684
2022-12-04T02:31:47.531Z,9.661669
2022-12-04T02:32:47.701Z,9.661680
2022-12-04T02:33:47.512Z,9.661417
2022-12-04T02:34:47.521Z,9.661540
2022-12-04T02:35:47.487Z,9.661576
2022-12-04T02:36:47.530Z,9.661668
2022-12-04T02:37:47.490Z,9.661814
2022-12-04T02:38:47.549Z,9.661716
2022-12-04T02:39:47.523Z,9.661896
2022-12-04T02:40:47.495Z,9.661760
2022-12-04T02:41:47.448Z,9.661752
2022-12-04T02:42:47.508Z,9.661629
2022-12-04T02:43:47.610Z,9.661688
2022-12-04T02:44:47.439Z,9.661555
2022-12-04T02:45:47.536Z,9.661469
2022-12-04T02:46:47.463Z,9.661483
2022-12-04T02:47:47.431Z,9.661359
2022-12-04T02:48:47.428Z,9.661446
2022-12-04T02:49:47.552Z,9.661637
2022-12-04T02:50:47.449Z,9.661707
2022-12-04T02:51:47.415Z,9.661741
2022-12-04T02:52:47.436Z,9.661561
2022-12-04T02:53:47.432Z,9.661160
2022-12-04T02:54:47.504Z,9.661280
2022-12-04T02:55:47.378Z,9.661510
2022-12-04T02:56:47.370Z,9.661387
2022-12-04T02:57:47.404Z,9.661428
2022-12-04T02:58:47.375Z,9.661741
2022-12-04T02:59:47.388Z,9.661713
2022-12-04T03:00:47.401Z,9.661773
2022-12-04T03:01:47.445Z,9.661789
2022-12-04T03:02:47.458Z,9.661447
2022-12-04T03:03:47.351Z,9.661478
2022-12-04T03:04:47.344Z,9.661881
2022-12-04T03:05:47.363Z,9.661649
2022-12-04T03:06:47.329Z,9.661778
2022-12-04T03:07:47.351Z,9.661693
2022-12-04T03:08:47.326Z,9.661768
2022-12-04T03:09:47.321Z,9.661624
2022-12-04T03:10:47.297Z,9.661678
2022-12-04T03:11:47.344Z,9.661715
2022-12-04T03:12:47.286Z,9.661901
2022-12-04T03:13:47.284Z,9.661930
2022-12-04T03:14:47.274Z,9.661806
2022-12-04T03:15:47.293Z,9.661531
2022-12-04T03:16:47.371Z,9.661546
2022-12-04T03:17:47.251Z,9.661584
2022-12-04T03:18:47.229Z,9.661457
2022-12-04T03:19:47.258Z,9.661642
2022-12-04T03:20:47.277Z,9.661610
2022-12-04T03:21:47.267Z,9.661611
2022-12-04T03:22:47.343Z,9.661696
2022-12-04T03:23:47.210Z,9.661657
2022-12-04T03:24:47.227Z,9.661737
2022-12-04T03:25:47.208Z,9.661711
2022-12-04T03:26:47.202Z,9.661684
2022-12-04T03:27:47.374Z,9.661681
2022-12-04T03:28:47.221Z,9.661690
2022-12-04T03:29:47.220Z,9.661680
2022-12-04T03:30:47.238Z,9.661708
2022-12-04T03:31:47.165Z,9.661722
2022-12-04T03:32:47.192Z,9.661665
2022-12-04T03:33:47.197Z,9.661613
2022-12-04T03:34:47.193Z,9.661573
2022-12-04T03:35:47.179Z,9.661589
2022-12-04T03:36:47.205Z,9.661587
2022-12-04T03:37:47.183Z,9.661646
2022-12-04T03:38:47.258Z,9.661629
2022-12-04T03:39:47.139Z,9.661628
2022-12-04T03:40:47.156Z,9.661617
2022-12-04T03:41:49.943Z,9.661586
2022-12-04T03:42:47.131Z,9.661558
2022-12-04T03:43:47.142Z,9.661543
2022-12-04T03:44:47.133Z,9.661637
2022-12-04T03:45:47.186Z,9.661572
2022-12-04T03:46:47.128Z,9.661543
2022-12-04T03:47:47.113Z,9.661578
2022-12-04T03:48:47.115Z,9.661586
2022-12-04T03:49:47.214Z,9.661650
2022-12-04T03:50:47.089Z,9.661534
2022-12-04T03:51:47.076Z,9.661663
2022-12-04T03:52:47.063Z,9.661756
2022-12-04T03:53:47.106Z,9.661699
2022-12-04T03:54:47.087Z,9.661627
2022-12-04T03:55:47.150Z,9.661525
2022-12-04T03:56:47.072Z,9.661536
2022-12-04T03:57:47.072Z,9.661600
2022-12-04T03:58:47.083Z,9.661620
2022-12-04T03:59:49.910Z,9.661614
2022-12-04T04:00:47.135Z,9.661682
2022-12-04T04:01:48.095Z,9.661636
2022-12-04T04:02:47.059Z,9.661646
2022-12-04T04:03:47.007Z,9.661602
2022-12-04T04:04:47.010Z,9.661596
2022-12-04T04:05:47.003Z,9.661507
2022-12-04T04:06:47.112Z,9.661603
2022-12-04T04:07:47.033Z,9.661638
2022-12-04T04:08:46.996Z,9.661594
2022-12-04T04:09:46.981Z,9.661656
2022-12-04T04:10:46.996Z,9.661602
2022-12-04T04:11:47.010Z,9.661490
2022-12-04T04:12:46.936Z,9.661370
2022-12-04T04:13:46.963Z,9.661448
2022-12-04T04:14:46.989Z,9.661632
2022-12-04T04:15:47.057Z,9.661683
2022-12-04T04:16:46.935Z,9.661599
2022-12-04T04:17:46.964Z,9.661502
2022-12-04T04:18:46.959Z,9.661451
2022-12-04T04:19:46.923Z,9.661644
2022-12-04T04:20:46.921Z,9.661687
2022-12-04T04:21:46.922Z,9.661682
2022-12-04T04:22:50.397Z,9.661513
2022-12-04T04:23:46.879Z,9.661699
2022-12-04T04:24:46.883Z,9.661652
2022-12-04T04:25:46.876Z,9.661572
2022-12-04T04:26:46.894Z,9.661541
2022-12-04T04:27:46.884Z,9.661660
2022-12-04T04:28:46.922Z,9.661440
2022-12-04T04:29:52.245Z,9.661400
2022-12-04T04:30:48.869Z,9.661512
2022-12-04T04:31:46.871Z,9.661676
2022-12-04T04:32:46.873Z,9.661419
2022-12-04T04:33:46.980Z,9.661602
2022-12-04T04:34:46.865Z,9.661583
2022-12-04T04:35:46.833Z,9.661873
2022-12-04T04:36:46.820Z,9.661273
2022-12-04T04:37:47.788Z,9.661462
2022-12-04T04:38:46.818Z,9.661342
2022-12-04T04:39:46.858Z,9.661527
2022-12-04T04:40:46.797Z,9.661597
2022-12-04T04:41:46.804Z,9.661505
2022-12-04T04:42:46.792Z,9.661551
2022-12-04T04:43:46.804Z,9.661662
2022-12-04T04:44:46.813Z,9.661516
2022-12-04T04:45:46.802Z,9.661692
2022-12-04T04:46:46.908Z,9.661556
2022-12-04T04:47:46.780Z,9.661756
2022-12-04T04:48:46.766Z,9.661642
2022-12-04T04:49:46.728Z,9.661901
2022-12-04T04:50:46.756Z,9.661433
2022-12-04T04:51:46.786Z,9.661127
2022-12-04T04:52:46.727Z,9.661319
2022-12-04T04:53:46.744Z,9.661609
2022-12-04T04:54:46.740Z,9.661465
2022-12-04T04:55:46.772Z,9.661433
2022-12-04T04:56:46.723Z,9.661434
2022-12-04T04:57:46.696Z,9.661679
2022-12-04T04:58:46.741Z,9.661782
2022-12-04T04:59:46.706Z,9.661724
2022-12-04T05:00:46.680Z,9.661738
2022-12-04T05:01:46.851Z,9.661659
2022-12-04T05:02:46.735Z,9.661623
2022-12-04T05:03:46.677Z,9.661636
2022-12-04T05:04:46.671Z,9.661685
2022-12-04T05:05:46.652Z,9.661582
2022-12-04T05:06:46.740Z,9.661565
2022-12-04T05:07:46.730Z,9.661574
2022-12-04T05:08:46.664Z,9.661626
2022-12-04T05:09:46.668Z,9.661499
2022-12-04T05:10:46.619Z,9.661326
2022-12-04T05:11:46.670Z,9.661315
2022-12-04T05:12:46.641Z,9.661296
2022-12-04T05:13:46.600Z,9.661460
2022-12-04T05:14:46.566Z,9.661494
2022-12-04T05:15:46.620Z,9.661523
2022-12-04T05:16:46.578Z,9.661572
2022-12-04T05:17:46.600Z,9.661619
2022-12-04T05:18:46.568Z,9.661636
2022-12-04T05:19:46.574Z,9.661562
2022-12-04T05:20:46.591Z,9.661487
2022-12-04T05:21:46.578Z,9.661481
2022-12-04T05:22:46.540Z,9.661503
2022-12-04T05:23:46.607Z,9.661524
2022-12-04T05:24:46.583Z,9.661494
2022-12-04T05:25:46.511Z,9.661405
2022-12-04T05:26:46.544Z,9.661379
2022-12-04T05:27:46.514Z,9.661511
2022-12-04T05:28:46.565Z,9.661525
2022-12-04T05:29:46.560Z,9.661428
2022-12-04T05:30:46.520Z,9.661444
2022-12-04T05:31:46.586Z,9.661539
2022-12-04T05:32:46.490Z,9.661625
2022-12-04T05:33:46.482Z,9.661576
2022-12-04T05:34:46.605Z,9.661598
2022-12-04T05:35:46.471Z,9.661567
2022-12-04T05:36:46.501Z,9.661488
2022-12-04T05:37:46.504Z,9.661498
2022-12-04T05:38:46.493Z,9.661627
2022-12-04T05:39:46.491Z,9.661569
2022-12-04T05:40:46.477Z,9.661178
2022-12-04T05:41:46.470Z,9.661523
2022-12-04T05:42:46.464Z,9.661551
2022-12-04T05:43:46.453Z,9.661621
2022-12-04T05:44:46.453Z,9.661710
2022-12-04T05:45:46.542Z,9.661499
2022-12-04T05:46:46.576Z,9.661585
2022-12-04T05:47:46.391Z,9.661524
2022-12-04T05:48:46.401Z,9.661505
2022-12-04T05:49:46.413Z,9.661516
2022-12-04T05:50:46.444Z,9.661555
2022-12-04T05:51:46.411Z,9.661552
2022-12-04T05:52:46.406Z,9.661622
2022-12-04T05:53:46.386Z,9.661556
2022-12-04T05:54:46.363Z,9.661530
2022-12-04T05:55:46.361Z,9.661475
2022-12-04T05:56:46.492Z,9.661493
2022-12-04T05:57:46.375Z,9.661597
2022-12-04T05:58:46.321Z,9.661410
2022-12-04T05:59:46.321Z,9.661564
2022-12-04T06:00:46.341Z,9.661593
2022-12-04T06:01:46.440Z,9.661434
2022-12-04T06:02:46.395Z,9.661490
2022-12-04T06:03:46.346Z,9.661427
2022-12-04T06:04:46.325Z,9.661440
2022-12-04T06:05:46.314Z,9.661514
2022-12-04T06:06:46.307Z,9.661541
2022-12-04T06:07:46.380Z,9.661509
2022-12-04T06:08:46.324Z,9.661519
2022-12-04T06:09:46.297Z,9.661535
2022-12-04T06:10:46.262Z,9.661645
2022-12-04T06:11:46.287Z,9.661573
2022-12-04T06:12:46.390Z,9.661492
2022-12-04T06:13:46.287Z,9.661481
2022-12-04T06:14:46.244Z,9.661569
2022-12-04T06:15:46.284Z,9.661499
2022-12-04T06:16:46.313Z,9.661689
2022-12-04T06:17:46.268Z,9.661681
2022-12-04T06:18:46.266Z,9.661592
2022-12-04T06:19:46.339Z,9.661524
2022-12-04T06:20:46.321Z,9.661590
2022-12-04T06:21:46.190Z,9.661471
2022-12-04T06:22:46.172Z,9.661558
2022-12-04T06:23:47.732Z,9.661465
2022-12-04T06:24:46.234Z,9.661828
2022-12-04T06:25:46.233Z,9.662080
2022-12-04T06:27:11.385Z,9.662113
2022-12-04T06:27:47.189Z,9.662340
2022-12-04T06:28:46.206Z,9.662061
2022-12-04T06:29:46.319Z,9.661593
2022-12-04T06:30:46.186Z,9.661463
2022-12-04T06:31:46.211Z,9.661448
2022-12-04T06:32:46.186Z,9.661638
2022-12-04T06:33:46.147Z,9.661774
2022-12-04T06:34:46.204Z,9.661657
2022-12-04T06:35:46.138Z,9.661780
2022-12-04T06:36:46.168Z,9.661788
2022-12-04T06:37:46.132Z,9.661860
2022-12-04T06:38:46.162Z,9.662096
2022-12-04T06:39:46.111Z,9.661804
2022-12-04T06:40:46.266Z,9.661592
2022-12-04T06:41:46.142Z,9.661816
2022-12-04T06:42:46.136Z,9.661736
2022-12-04T06:43:46.095Z,9.661737
2022-12-04T06:44:46.114Z,9.661952
2022-12-04T06:45:46.318Z,9.661830
2022-12-04T06:46:47.322Z,9.661762
2022-12-04T06:47:46.101Z,9.661926
2022-12-04T06:48:46.073Z,9.661880
2022-12-04T06:49:46.098Z,9.661900
2022-12-04T06:50:46.063Z,9.661746
2022-12-04T06:51:46.279Z,9.662049
2022-12-04T06:52:46.021Z,9.662440
2022-12-04T06:53:46.055Z,9.661663
2022-12-04T06:54:46.044Z,9.661517
2022-12-04T06:55:46.011Z,9.661880
2022-12-04T06:56:46.129Z,9.661818
2022-12-04T06:57:46.028Z,9.661601
2022-12-04T06:58:46.026Z,9.661777
2022-12-04T06:59:46.036Z,9.661838
2022-12-04T07:00:46.062Z,9.662045
2022-12-04T07:01:46.027Z,9.661901
2022-12-04T07:02:46.054Z,9.661873
2022-12-04T07:03:51.068Z,9.661590
2022-12-04T07:04:46.981Z,9.661173
2022-12-04T07:05:46.002Z,9.660954
2022-12-04T07:06:45.956Z,9.660904
2022-12-04T07:07:46.119Z,9.661052
2022-12-04T07:08:45.970Z,9.660864
2022-12-04T07:09:45.958Z,9.660801
2022-12-04T07:10:45.984Z,9.660790
2022-12-04T07:11:45.953Z,9.661362
2022-12-04T07:12:45.951Z,9.661662
2022-12-04T07:13:45.953Z,9.661334
2022-12-04T07:14:45.917Z,9.660819
2022-12-04T07:15:45.915Z,9.660791
2022-12-04T07:16:45.934Z,9.661010
2022-12-04T07:17:45.871Z,9.661407
2022-12-04T07:18:45.940Z,9.661482
2022-12-04T07:19:45.894Z,9.661477
2022-12-04T07:20:45.887Z,9.661618
2022-12-04T07:21:45.922Z,9.661678
2022-12-04T07:22:45.893Z,9.661549
2022-12-04T07:23:45.891Z,9.661576
2022-12-04T07:24:45.883Z,9.661976
2022-12-04T07:25:45.857Z,9.661674
2022-12-04T07:26:45.858Z,9.661481
2022-12-04T07:27:45.846Z,9.661364
2022-12-04T07:28:45.840Z,9.661422
2022-12-04T07:29:45.844Z,9.661526
2022-12-04T07:30:45.815Z,9.661577
2022-12-04T07:31:45.886Z,9.661520
2022-12-04T07:32:45.782Z,9.661531
2022-12-04T07:33:45.794Z,9.661436
2022-12-04T07:34:45.815Z,9.661501
2022-12-04T07:35:45.822Z,9.661692
2022-12-04T07:36:45.773Z,9.661674
2022-12-04T07:37:45.805Z,9.661728
2022-12-04T07:38:45.802Z,9.661815
2022-12-04T07:39:45.794Z,9.661974
2022-12-04T07:40:45.906Z,9.661950
2022-12-04T07:41:45.734Z,9.662115
2022-12-04T07:42:45.770Z,9.662262
2022-12-04T07:43:45.750Z,9.661939
2022-12-04T07:44:45.732Z,9.661792
2022-12-04T07:45:45.830Z,9.661941
2022-12-04T07:46:45.720Z,9.661954
2022-12-04T07:47:45.722Z,9.661993
2022-12-04T07:48:45.735Z,9.661942
2022-12-04T07:49:45.734Z,9.661956
2022-12-04T07:50:45.682Z,9.661787
2022-12-04T07:51:45.867Z,9.661555
2022-12-04T07:52:45.677Z,9.661477
2022-12-04T07:53:45.706Z,9.661339
2022-12-04T07:54:45.645Z,9.661359
2022-12-04T07:55:45.678Z,9.661314
2022-12-04T07:56:45.680Z,9.661248
2022-12-04T07:57:45.700Z,9.661368
2022-12-04T07:58:45.647Z,9.661362
2022-12-04T07:59:45.705Z,9.661434
2022-12-04T08:00:45.657Z,9.661265
2022-12-04T08:01:45.735Z,9.661277
2022-12-04T08:02:45.675Z,9.661172
2022-12-04T08:03:48.502Z,9.661308
2022-12-04T08:04:46.729Z,9.661684
2022-12-04T08:05:45.597Z,9.661631
2022-12-04T08:06:45.733Z,9.661690
2022-12-04T08:07:45.713Z,9.661587
2022-12-04T08:08:45.721Z,9.661467
2022-12-04T08:09:45.622Z,9.661593
2022-12-04T08:10:45.617Z,9.661618
2022-12-04T08:11:45.643Z,9.661542
2022-12-04T08:12:45.584Z,9.661549
2022-12-04T08:13:45.726Z,9.661597
2022-12-04T08:14:45.590Z,9.661470
2022-12-04T08:15:45.585Z,9.661549
2022-12-04T08:16:51.069Z,9.661551
2022-12-04T08:17:46.583Z,9.661611
2022-12-04T08:18:45.558Z,9.661605
2022-12-04T08:19:45.596Z,9.661548
2022-12-04T08:20:45.546Z,9.661560
2022-12-04T08:21:45.531Z,9.661428
2022-12-04T08:22:45.527Z,9.661553
2022-12-04T08:23:45.503Z,9.661557
2022-12-04T08:24:45.649Z,9.661622
2022-12-04T08:25:45.529Z,9.661554
2022-12-04T08:26:45.522Z,9.661609
2022-12-04T08:27:47.500Z,9.661500
2022-12-04T08:28:46.519Z,9.661382
2022-12-04T08:29:45.500Z,9.661484
2022-12-04T08:30:46.523Z,9.661495
2022-12-04T08:31:45.499Z,9.661536
2022-12-04T08:32:45.481Z,9.661462
2022-12-04T08:33:45.468Z,9.661457
2022-12-04T08:34:45.476Z,9.661426
2022-12-04T08:35:45.456Z,9.661372
2022-12-04T08:36:45.456Z,9.661446
2022-12-04T08:37:45.463Z,9.661470
2022-12-04T08:38:45.444Z,9.661419
2022-12-04T08:39:45.441Z,9.661309
2022-12-04T08:40:45.421Z,9.661382
2022-12-04T08:41:45.428Z,9.661449
2022-12-04T08:42:45.395Z,9.661476
2022-12-04T08:43:45.408Z,9.661497
2022-12-04T08:44:45.426Z,9.661463
2022-12-04T08:45:45.497Z,9.661473
2022-12-04T08:46:45.485Z,9.661520
2022-12-04T08:47:50.612Z,9.661349
2022-12-04T08:48:47.403Z,9.661313
2022-12-04T08:49:45.394Z,9.661422
2022-12-04T08:50:45.406Z,9.661342
2022-12-04T08:51:45.385Z,9.661295
2022-12-04T08:52:45.383Z,9.661257
2022-12-04T08:53:45.359Z,9.660836
2022-12-04T08:54:45.376Z,9.661400
2022-12-04T08:55:45.362Z,9.660813
2022-12-04T08:56:45.357Z,9.661179
2022-12-04T08:57:45.316Z,9.661214
2022-12-04T08:58:45.330Z,9.661313
2022-12-04T08:59:45.345Z,9.661484
2022-12-04T09:00:45.327Z,9.661438
2022-12-04T09:01:45.468Z,9.661482
2022-12-04T09:02:45.303Z,9.661433
2022-12-04T09:03:45.286Z,9.661355
2022-12-04T09:04:46.317Z,9.661409
2022-12-04T09:05:46.411Z,9.661355
2022-12-04T09:06:45.283Z,9.661322
2022-12-04T09:07:45.289Z,9.661436
2022-12-04T09:08:45.271Z,9.661263
2022-12-04T09:09:48.448Z,9.661345
2022-12-04T09:10:45.264Z,9.661018
2022-12-04T09:11:45.306Z,9.661323
2022-12-04T09:12:45.268Z,9.661412
2022-12-04T09:13:45.256Z,9.661489
2022-12-04T09:14:45.257Z,9.661330
2022-12-04T09:15:45.238Z,9.661404
2022-12-04T09:16:45.839Z,9.661408
2022-12-04T09:17:45.218Z,9.661412
2022-12-04T09:18:45.190Z,9.661391
2022-12-04T09:19:45.226Z,9.661575
2022-12-04T09:20:45.182Z,9.661501
2022-12-04T09:21:45.207Z,9.661264
2022-12-04T09:23:02.729Z,9.661395
2022-12-04T09:23:47.197Z,9.661486
2022-12-04T09:24:45.181Z,9.661305
2022-12-04T09:25:45.175Z,9.661186
2022-12-04T09:26:45.155Z,9.661248
2022-12-04T09:27:45.157Z,9.661313
2022-12-04T09:28:45.159Z,9.661204
2022-12-04T09:29:45.134Z,9.661387
2022-12-04T09:30:45.220Z,9.661614
2022-12-04T09:31:45.204Z,9.661499
2022-12-04T09:32:45.135Z,9.661306
2022-12-04T09:33:45.186Z,9.661375
2022-12-04T09:34:49.579Z,9.661367
2022-12-04T09:35:47.123Z,9.661297
2022-12-04T09:36:45.115Z,9.661316
2022-12-04T09:37:45.134Z,9.661259
2022-12-04T09:38:45.170Z,9.661361
2022-12-04T09:39:45.100Z,9.661382
2022-12-04T09:40:45.083Z,9.661285
2022-12-04T09:41:45.065Z,9.661359
2022-12-04T09:42:45.099Z,9.661234
2022-12-04T09:43:45.043Z,9.661360
2022-12-04T09:44:45.115Z,9.661400
2022-12-04T09:45:45.043Z,9.661472
2022-12-04T09:46:45.402Z,9.661256
2022-12-04T09:47:45.060Z,9.661342
2022-12-04T09:48:45.063Z,9.661263
2022-12-04T09:49:45.148Z,9.661467
2022-12-04T09:50:45.065Z,9.661325
2022-12-04T09:51:45.039Z,9.661469
2022-12-04T09:52:45.063Z,9.661155
2022-12-04T09:53:45.021Z,9.661411
2022-12-04T09:54:45.008Z,9.661072
2022-12-04T09:55:45.155Z,9.661407
2022-12-04T09:56:44.986Z,9.661316
2022-12-04T09:57:45.026Z,9.661143
2022-12-04T09:58:44.975Z,9.661334
2022-12-04T09:59:44.981Z,9.660953
2022-12-04T10:00:45.094Z,9.660170
2022-12-04T10:01:45.013Z,9.659006
2022-12-04T10:02:45.144Z,9.659047
2022-12-04T10:03:45.179Z,9.659791
2022-12-04T10:04:44.948Z,9.660178
2022-12-04T10:05:44.942Z,9.660723
2022-12-04T10:06:44.946Z,9.661151
2022-12-04T10:07:44.957Z,9.660839
2022-12-04T10:08:44.918Z,9.661214
2022-12-04T10:09:44.935Z,9.660933
2022-12-04T10:10:45.913Z,9.660932
2022-12-04T10:11:44.923Z,9.661108
2022-12-04T10:12:44.905Z,9.660602
2022-12-04T10:13:44.933Z,9.660442
2022-12-04T10:14:44.948Z,9.659934
2022-12-04T10:15:44.966Z,9.659500
2022-12-04T10:16:44.899Z,9.659412
2022-12-04T10:17:45.014Z,9.659439
2022-12-04T10:18:44.915Z,9.659943
2022-12-04T10:19:44.872Z,9.660014
2022-12-04T10:20:45.884Z,9.660160
2022-12-04T10:21:44.876Z,9.660642
2022-12-04T10:22:44.861Z,9.660988
2022-12-04T10:23:44.877Z,9.661120
2022-12-04T10:24:44.888Z,9.661120
2022-12-04T10:25:44.859Z,9.661804
2022-12-04T10:26:44.836Z,9.661474
2022-12-04T10:27:44.858Z,9.661457
2022-12-04T10:28:44.959Z,9.661577
2022-12-04T10:29:44.778Z,9.661320
2022-12-04T10:30:44.838Z,9.661366
2022-12-04T10:31:44.858Z,9.660882
2022-12-04T10:32:44.792Z,9.660736
2022-12-04T10:33:44.835Z,9.660832
2022-12-04T10:34:45.915Z,9.660826
2022-12-04T10:35:44.817Z,9.660902
2022-12-04T10:36:44.832Z,9.660841
2022-12-04T10:37:44.807Z,9.660886
2022-12-04T10:38:44.791Z,9.661508
2022-12-04T10:39:44.878Z,9.661517
2022-12-04T10:40:44.769Z,9.661544
2022-12-04T10:41:44.766Z,9.661546
2022-12-04T10:42:44.736Z,9.661569
2022-12-04T10:43:44.755Z,9.661486
2022-12-04T10:44:44.792Z,9.661404
2022-12-04T10:45:44.715Z,9.661235
2022-12-04T10:46:46.462Z,9.661321
2022-12-04T10:47:44.755Z,9.661332
2022-12-04T10:48:44.714Z,9.661403
2022-12-04T10:49:44.710Z,9.661432
2022-12-04T10:50:44.795Z,9.661114
2022-12-04T10:51:44.692Z,9.660610
2022-12-04T10:52:44.718Z,9.660116
2022-12-04T10:53:44.727Z,9.660147
2022-12-04T10:54:44.706Z,9.660504
2022-12-04T10:55:44.825Z,9.661079
2022-12-04T10:56:44.681Z,9.661292
2022-12-04T10:57:44.664Z,9.661481
2022-12-04T10:58:44.671Z,9.661742
2022-12-04T10:59:44.650Z,9.661837
2022-12-04T11:00:44.614Z,9.661630
2022-12-04T11:01:44.827Z,9.661419
2022-12-04T11:02:44.834Z,9.661230
2022-12-04T11:03:44.754Z,9.661356
2022-12-04T11:04:44.614Z,9.662096
2022-12-04T11:05:44.597Z,9.662096
2022-12-04T11:06:44.625Z,9.661993
2022-12-04T11:07:44.640Z,9.661798
2022-12-04T11:08:44.597Z,9.661782
2022-12-04T11:09:44.581Z,9.661508
2022-12-04T11:10:44.581Z,9.660997
2022-12-04T11:11:44.628Z,9.661220
2022-12-04T11:12:44.615Z,9.661493
2022-12-04T11:13:44.573Z,9.661510
2022-12-04T11:14:46.972Z,9.661473
2022-12-04T11:15:44.612Z,9.661515
2022-12-04T11:16:44.796Z,9.661566
2022-12-04T11:17:44.615Z,9.661376
2022-12-04T11:18:44.574Z,9.661369
2022-12-04T11:19:44.529Z,9.661511
2022-12-04T11:20:47.048Z,9.661633
2022-12-04T11:21:45.545Z,9.661536
2022-12-04T11:22:44.510Z,9.661482
2022-12-04T11:23:44.575Z,9.661442
2022-12-04T11:24:44.510Z,9.661618
2022-12-04T11:25:44.491Z,9.661517
2022-12-04T11:26:44.543Z,9.661530
2022-12-04T11:27:44.505Z,9.661497
2022-12-04T11:28:44.573Z,9.661467
2022-12-04T11:29:44.479Z,9.661452
2022-12-04T11:30:44.495Z,9.661666
2022-12-04T11:31:44.517Z,9.661457
2022-12-04T11:32:44.510Z,9.661461
2022-12-04T11:33:44.477Z,9.661428
2022-12-04T11:34:44.461Z,9.661464
2022-12-04T11:35:44.482Z,9.661504
2022-12-04T11:36:44.471Z,9.661551
2022-12-04T11:37:45.600Z,9.661649
2022-12-04T11:38:44.402Z,9.661753
2022-12-04T11:39:44.473Z,9.661576
2022-12-04T11:40:44.401Z,9.661519
2022-12-04T11:41:44.430Z,9.661525
2022-12-04T11:42:44.386Z,9.661543
2022-12-04T11:43:44.400Z,9.661511
2022-12-04T11:44:44.412Z,9.661557